Main page
METAR-TAF:

METAR-TAF

Airports :

Humberside Airport

Humberside, England

latitude: 53-35N, longitude: 000-21W, elevation: 31 m

Current weather observation

The report was made 15 minutes ago, at 14:20 UTC
Wind 5 kt from the Northeast
Temperature 6°C
Humidity 93%
Pressure 1031 hPa
Visibility: 5000 m
Overcast at a height of 700 ft
haze

METAR: EGNJ 021420Z 05005KT 5000 HZ OVC007 06/05 Q1031

Time: 14:35 (14:35 UTC)

Forecast

The report was made 3 hours and 29 minutes ago, at 11:06 UTC
Forecast valid from 02 at 12 UTC to 02 at 21 UTC
Wind 8 kt from the East
Visibility: 8000 m
Broken clouds at a height of 900 ft
Temporary
from 02 at 12 UTC to 02 at 21 UTC
Visibility: 3000 m
Broken clouds at a height of 100 ft
mist
Probability 30% :
Temporary
from 02 at 15 UTC to 02 at 21 UTC
Visibility: 0300 m
fog

TAF: EGNJ 021106Z 0212/0221 08008KT 8000 BKN009 TEMPO 0212/0221 3000 BR BKN001 PROB30 TEMPO 0215/0221 0300 FG

Weather observations and forecasts of more than 4000 airports (METAR and TAF reports).

The available stations are represented by yellow and red dots on the map.

Hover mouse over dot to see the name of the station.

Then click to see weather observations and forecasts.

To change the map : click on the green buttons with a black cross to zoom in, on the green button with a dash to zoom out, or on the green arrows for adjacent maps.


METAR-TAF: